createdAt,value
2022-10-15T00:01:27.421Z,9.30
2022-10-15T00:03:55.252Z,9.90
2022-10-15T00:06:22.615Z,8.83
2022-10-15T00:08:50.193Z,9.47
2022-10-15T00:11:20.654Z,9.50
2022-10-15T00:13:48.869Z,9.30
2022-10-15T00:16:23.023Z,10.47
2022-10-15T00:18:51.833Z,10.00
2022-10-15T00:21:22.720Z,10.43
2022-10-15T00:23:50.356Z,11.17
2022-10-15T00:26:20.342Z,11.30
2022-10-15T00:28:49.957Z,11.33
2022-10-15T00:31:23.192Z,11.33
2022-10-15T00:33:51.702Z,11.53
2022-10-15T00:36:30.814Z,11.37
2022-10-15T00:38:58.891Z,11.87
2022-10-15T00:41:32.303Z,12.27
2022-10-15T00:44:22.554Z,11.80
2022-10-15T00:47:03.772Z,12.13
2022-10-15T00:49:33.670Z,13.63
2022-10-15T00:52:04.520Z,13.47
2022-10-15T00:54:37.554Z,12.43
2022-10-15T00:57:07.116Z,12.97
2022-10-15T00:59:39.005Z,14.15
2022-10-15T01:02:07.062Z,14.03
2022-10-15T01:04:35.859Z,12.57
2022-10-15T01:07:06.328Z,12.73
2022-10-15T01:09:34.024Z,12.77
2022-10-15T01:12:01.614Z,13.80
2022-10-15T01:14:49.665Z,14.00
2022-10-15T01:17:40.770Z,13.97
2022-10-15T01:20:35.521Z,13.40
2022-10-15T01:23:27.743Z,13.43
2022-10-15T01:26:22.567Z,13.77
2022-10-15T01:29:10.820Z,14.00
2022-10-15T01:31:43.519Z,14.77
2022-10-15T01:34:21.749Z,14.40
2022-10-15T01:37:06.605Z,14.20
2022-10-15T01:39:45.142Z,14.33
2022-10-15T01:42:40.621Z,15.20
2022-10-15T01:45:11.695Z,15.70
2022-10-15T01:47:50.365Z,16.20
2022-10-15T01:50:21.043Z,14.63
2022-10-15T01:52:50.773Z,15.43
2022-10-15T01:55:21.090Z,15.00
2022-10-15T01:57:48.980Z,16.07
2022-10-15T02:00:16.786Z,16.33
2022-10-15T02:02:46.119Z,16.57
2022-10-15T02:05:21.928Z,17.00
2022-10-15T02:08:03.824Z,16.50
2022-10-15T02:10:43.434Z,17.70
2022-10-15T02:13:41.912Z,17.00
2022-10-15T02:16:24.831Z,16.30
2022-10-15T02:19:20.540Z,17.97
2022-10-15T02:21:57.489Z,17.70
2022-10-15T02:24:28.134Z,17.53
2022-10-15T02:27:02.243Z,17.40
2022-10-15T02:29:33.159Z,17.10
2022-10-15T02:32:01.744Z,17.73
2022-10-15T02:34:31.119Z,17.17
2022-10-15T02:37:01.227Z,17.13
2022-10-15T02:39:28.838Z,17.77
2022-10-15T02:41:57.521Z,17.37
2022-10-15T02:44:24.661Z,17.40
2022-10-15T02:46:51.918Z,16.87
2022-10-15T02:49:19.168Z,17.20
2022-10-15T02:51:46.338Z,17.83
2022-10-15T02:54:16.119Z,16.17
2022-10-15T02:56:43.470Z,16.87
2022-10-15T02:59:12.978Z,16.47
2022-10-15T03:01:40.177Z,17.07
2022-10-15T03:04:07.397Z,17.97
2022-10-15T03:06:34.743Z,16.90
2022-10-15T03:09:02.060Z,16.60
2022-10-15T03:11:29.235Z,16.70
2022-10-15T03:13:56.451Z,16.70
2022-10-15T03:16:23.686Z,16.83
2022-10-15T03:18:50.896Z,16.67
2022-10-15T03:21:18.143Z,16.73
2022-10-15T03:23:45.355Z,15.50
2022-10-15T03:26:12.545Z,15.70
2022-10-15T03:28:39.786Z,15.33
2022-10-15T03:31:07.073Z,15.13
2022-10-15T03:33:34.358Z,15.50
2022-10-15T03:36:01.541Z,17.00
2022-10-15T03:38:28.733Z,15.77
2022-10-15T03:40:55.862Z,15.77
2022-10-15T03:43:25.538Z,16.90
2022-10-15T03:45:53.249Z,17.27
2022-10-15T03:48:20.748Z,16.67
2022-10-15T03:50:48.179Z,16.00
2022-10-15T03:53:17.643Z,16.43
2022-10-15T03:55:44.787Z,15.40
2022-10-15T03:58:11.984Z,15.30
2022-10-15T04:00:42.799Z,14.77
2022-10-15T04:03:10.106Z,14.87
2022-10-15T04:05:37.293Z,14.53
2022-10-15T04:08:04.889Z,14.90
2022-10-15T04:10:32.063Z,14.37
2022-10-15T04:12:59.308Z,13.80
2022-10-15T04:15:27.839Z,13.93
2022-10-15T04:17:55.788Z,13.50
2022-10-15T04:20:23.738Z,12.87
2022-10-15T04:22:50.985Z,12.90
2022-10-15T04:25:20.558Z,12.93
2022-10-15T04:27:47.769Z,11.57
2022-10-15T04:30:17.588Z,12.30
2022-10-15T04:32:44.913Z,12.53
2022-10-15T04:35:12.090Z,12.07
2022-10-15T04:37:39.264Z,12.70
2022-10-15T04:40:07.310Z,11.20
2022-10-15T04:42:36.728Z,10.87
2022-10-15T04:45:04.449Z,11.70
2022-10-15T04:47:31.730Z,10.60
2022-10-15T04:49:58.959Z,11.17
2022-10-15T04:52:26.171Z,11.10
2022-10-15T04:54:53.349Z,11.07
2022-10-15T04:57:20.983Z,11.27
2022-10-15T04:59:49.884Z,10.93
2022-10-15T05:02:22.309Z,11.13
2022-10-15T05:04:49.691Z,10.83
2022-10-15T05:07:16.920Z,10.60
2022-10-15T05:09:46.384Z,10.17
2022-10-15T05:12:13.879Z,10.87
2022-10-15T05:14:41.913Z,10.90
2022-10-15T05:17:09.198Z,9.73
2022-10-15T05:19:36.392Z,11.10
2022-10-15T05:22:07.944Z,10.33
2022-10-15T05:24:35.177Z,10.50
2022-10-15T05:27:03.165Z,10.23
2022-10-15T05:29:30.597Z,10.20
2022-10-15T05:31:57.782Z,10.20
2022-10-15T05:34:27.058Z,9.40
2022-10-15T05:36:54.221Z,9.57
2022-10-15T05:39:21.755Z,9.67
2022-10-15T05:41:49.492Z,9.93
2022-10-15T05:44:16.789Z,9.00
2022-10-15T05:46:43.979Z,9.40
2022-10-15T05:49:11.224Z,9.40
2022-10-15T05:51:38.441Z,8.97
2022-10-15T05:54:05.664Z,9.00
2022-10-15T05:56:32.844Z,8.73
2022-10-15T05:59:00.126Z,8.73
2022-10-15T06:01:27.317Z,8.97
2022-10-15T06:03:54.621Z,8.47
2022-10-15T06:06:26.563Z,7.70
2022-10-15T06:08:54.973Z,7.27
2022-10-15T06:11:24.426Z,7.23
2022-10-15T06:13:51.716Z,7.93
2022-10-15T06:16:22.640Z,7.77
2022-10-15T06:18:54.230Z,10.23
2022-10-15T06:21:28.422Z,9.33
2022-10-15T06:23:55.506Z,7.17
2022-10-15T06:26:22.711Z,6.57
2022-10-15T06:28:49.924Z,9.70
2022-10-15T06:31:17.232Z,9.43
2022-10-15T06:33:44.491Z,9.20
2022-10-15T06:36:13.702Z,7.40
2022-10-15T06:38:43.060Z,6.50
2022-10-15T06:41:10.399Z,6.30
2022-10-15T06:43:37.646Z,6.07
2022-10-15T06:46:08.535Z,8.37
2022-10-15T06:48:35.746Z,5.53
2022-10-15T06:51:03.923Z,4.77
2022-10-15T06:53:31.469Z,4.37
2022-10-15T06:56:00.009Z,4.33
2022-10-15T06:58:31.017Z,4.00
2022-10-15T07:01:06.530Z,5.23
2022-10-15T07:03:33.793Z,6.00
2022-10-15T07:06:05.999Z,5.73
2022-10-15T07:08:33.658Z,4.50
2022-10-15T07:11:08.800Z,6.33
2022-10-15T07:13:38.914Z,6.47
2022-10-15T07:16:10.339Z,3.70
2022-10-15T07:18:38.477Z,4.10
2022-10-15T07:21:07.413Z,3.53
2022-10-15T07:23:39.394Z,6.93
2022-10-15T07:26:06.833Z,4.67
2022-10-15T07:28:34.156Z,4.07
2022-10-15T07:31:04.023Z,3.13
2022-10-15T07:33:33.461Z,2.70
2022-10-15T07:36:08.866Z,2.80
2022-10-15T07:38:36.072Z,3.67
2022-10-15T07:41:04.672Z,2.97
2022-10-15T07:43:34.611Z,2.67
2022-10-15T07:46:02.637Z,2.70
2022-10-15T07:48:30.474Z,2.20
2022-10-15T07:51:02.349Z,2.30
2022-10-15T07:53:29.938Z,2.53
2022-10-15T07:56:08.108Z,2.50
2022-10-15T07:58:37.949Z,2.00
2022-10-15T08:01:10.173Z,1.90
2022-10-15T08:03:38.535Z,2.33
2022-10-15T08:06:07.945Z,2.33
2022-10-15T08:08:36.204Z,2.23
2022-10-15T08:11:13.219Z,1.87
2022-10-15T08:13:42.341Z,1.50
2022-10-15T08:16:12.319Z,1.50
2022-10-15T08:18:41.404Z,1.57
2022-10-15T08:21:09.314Z,1.33
2022-10-15T08:23:39.452Z,1.50
2022-10-15T08:26:07.328Z,1.50
2022-10-15T08:28:36.093Z,1.33
2022-10-15T08:31:06.902Z,1.53
2022-10-15T08:33:35.590Z,1.30
2022-10-15T08:36:05.328Z,1.40
2022-10-15T08:38:32.808Z,1.23
2022-10-15T08:41:02.725Z,1.30
2022-10-15T08:43:40.135Z,1.20
2022-10-15T08:48:50.842Z,0.70
2022-10-15T08:51:24.072Z,0.63
2022-10-15T08:53:55.160Z,0.60
2022-10-15T08:56:36.828Z,0.67
2022-10-15T08:59:27.643Z,0.60
2022-10-15T09:02:19.005Z,0.70
2022-10-15T09:05:14.042Z,0.70
2022-10-15T09:07:53.592Z,0.70
2022-10-15T09:10:39.115Z,0.50
2022-10-15T09:13:16.230Z,0.67
2022-10-15T09:15:52.050Z,0.70
2022-10-15T09:18:28.820Z,0.40
2022-10-15T09:20:57.476Z,0.63
2022-10-15T09:23:29.971Z,0.43
2022-10-15T09:26:03.858Z,0.50
2022-10-15T09:28:56.146Z,0.33
2022-10-15T09:31:29.551Z,0.43
2022-10-15T09:34:07.357Z,0.40
2022-10-15T09:36:53.992Z,0.50
2022-10-15T09:39:53.068Z,0.30
2022-10-15T09:42:38.247Z,0.50
2022-10-15T09:45:14.196Z,0.50
2022-10-15T09:47:42.766Z,0.70
2022-10-15T09:50:15.636Z,0.83
2022-10-15T09:53:05.764Z,0.70
2022-10-15T09:55:36.063Z,0.67
2022-10-15T09:58:29.700Z,0.80
2022-10-15T10:01:04.809Z,0.90
2022-10-15T10:03:33.857Z,0.60
2022-10-15T10:06:00.962Z,0.53
2022-10-15T10:11:20.559Z,0.70
2022-10-15T10:14:01.097Z,0.70
2022-10-15T10:16:30.211Z,0.90
2022-10-15T10:19:15.490Z,0.70
2022-10-15T10:21:43.687Z,0.70
2022-10-15T10:24:20.825Z,0.73
2022-10-15T10:26:48.532Z,0.60
2022-10-15T10:29:33.031Z,0.97
2022-10-15T10:32:09.485Z,0.63
2022-10-15T10:34:36.754Z,0.60
2022-10-15T10:37:05.268Z,0.70
2022-10-15T10:39:36.349Z,0.77
2022-10-15T10:42:07.754Z,0.90
2022-10-15T10:44:46.473Z,1.03
2022-10-15T10:47:18.965Z,0.43
2022-10-15T10:49:52.290Z,0.80
2022-10-15T10:52:20.655Z,0.50
2022-10-15T10:54:55.440Z,0.70
2022-10-15T10:57:50.466Z,0.50
2022-10-15T11:00:35.616Z,0.60
2022-10-15T11:03:03.016Z,0.63
2022-10-15T11:05:33.391Z,0.50
2022-10-15T11:08:10.266Z,0.50
2022-10-15T11:11:02.977Z,0.63
2022-10-15T11:13:41.275Z,0.60
2022-10-15T11:16:22.127Z,5.35
2022-10-15T11:22:26.810Z,0.68
2022-10-15T11:25:23.021Z,0.70
2022-10-15T11:28:19.844Z,0.60
2022-10-15T11:31:07.704Z,0.50
2022-10-15T11:33:50.002Z,0.63
2022-10-15T11:36:44.804Z,0.70
2022-10-15T11:39:50.177Z,0.95
2022-10-15T11:42:22.465Z,0.90
2022-10-15T11:45:26.479Z,0.97
2022-10-15T11:48:13.192Z,1.63
2022-10-15T11:50:49.394Z,1.07
2022-10-15T11:53:31.681Z,0.70
2022-10-15T11:56:13.306Z,0.60
2022-10-15T11:59:05.963Z,2.00
2022-10-15T12:01:49.985Z,1.50
2022-10-15T12:04:36.411Z,0.47
2022-10-15T12:07:06.847Z,0.93
2022-10-15T12:09:41.017Z,0.50
2022-10-15T12:12:18.659Z,0.70
2022-10-15T12:15:13.992Z,1.13
2022-10-15T12:18:09.616Z,0.70
2022-10-15T12:20:39.890Z,0.87
2022-10-15T12:23:25.931Z,0.70
2022-10-15T12:25:55.737Z,0.70
2022-10-15T12:28:26.312Z,0.68
2022-10-15T12:30:54.856Z,0.60
2022-10-15T12:33:33.393Z,0.60
2022-10-15T12:36:09.513Z,0.60
2022-10-15T12:38:43.595Z,0.60
2022-10-15T12:41:12.946Z,0.60
2022-10-15T12:43:44.117Z,0.57
2022-10-15T12:46:12.968Z,0.50
2022-10-15T12:48:45.674Z,0.47
2022-10-15T12:51:22.095Z,0.50
2022-10-15T12:53:56.249Z,0.60
2022-10-15T12:56:40.276Z,0.40
2022-10-15T12:59:28.766Z,0.80
2022-10-15T13:01:55.947Z,0.80
2022-10-15T13:04:23.768Z,0.80
2022-10-15T13:06:51.503Z,0.90
2022-10-15T13:09:27.270Z,1.40
2022-10-15T13:11:56.610Z,0.83
2022-10-15T13:14:38.464Z,0.67
2022-10-15T13:17:23.007Z,1.30
2022-10-15T13:20:34.551Z,1.00
2022-10-15T13:23:32.801Z,0.70
2022-10-15T13:26:30.085Z,1.20
2022-10-15T13:28:58.154Z,0.80
2022-10-15T13:31:35.046Z,1.53
2022-10-15T13:34:20.997Z,1.60
2022-10-15T13:36:48.833Z,0.60
2022-10-15T13:39:36.021Z,0.97
2022-10-15T13:42:13.517Z,0.40
2022-10-15T13:44:43.523Z,0.70
2022-10-15T13:47:35.781Z,0.90
2022-10-15T13:50:35.128Z,0.50
2022-10-15T13:53:17.270Z,0.80
2022-10-15T13:55:52.721Z,0.53
2022-10-15T13:58:27.458Z,0.50
2022-10-15T14:01:01.230Z,0.70
2022-10-15T14:03:31.232Z,0.70
2022-10-15T14:06:10.480Z,1.00
2022-10-15T14:08:37.918Z,0.97
2022-10-15T14:11:05.220Z,0.80
2022-10-15T14:13:32.604Z,0.90
2022-10-15T14:16:12.791Z,1.10
2022-10-15T14:18:48.147Z,1.70
2022-10-15T14:21:22.201Z,0.67
2022-10-15T14:23:50.208Z,0.50
2022-10-15T14:26:24.715Z,0.97
2022-10-15T14:28:52.702Z,0.60
2022-10-15T14:31:36.747Z,0.60
2022-10-15T14:34:04.549Z,0.60
2022-10-15T14:36:41.000Z,0.77
2022-10-15T14:39:34.102Z,0.70
2022-10-15T14:42:07.367Z,0.67
2022-10-15T14:44:42.674Z,0.87
2022-10-15T14:47:18.200Z,0.53
2022-10-15T14:49:45.825Z,0.65
2022-10-15T14:52:20.443Z,0.47
2022-10-15T14:55:28.435Z,0.60
2022-10-15T14:57:55.907Z,0.40
2022-10-15T15:00:33.671Z,0.70
2022-10-15T15:03:04.763Z,0.60
2022-10-15T15:05:47.891Z,0.60
2022-10-15T15:08:17.931Z,0.63
2022-10-15T15:10:49.330Z,0.60
2022-10-15T15:13:22.881Z,0.70
2022-10-15T15:15:50.566Z,0.87
2022-10-15T15:18:18.890Z,0.80
2022-10-15T15:20:48.449Z,0.88
2022-10-15T15:23:25.744Z,0.80
2022-10-15T15:25:54.925Z,0.50
2022-10-15T15:28:24.406Z,0.60
2022-10-15T15:30:58.180Z,0.65
2022-10-15T15:33:28.111Z,0.70
2022-10-15T15:36:01.310Z,0.50
2022-10-15T15:38:31.365Z,0.65
2022-10-15T15:41:04.307Z,0.80
2022-10-15T15:43:32.237Z,1.05
2022-10-15T15:46:01.786Z,0.73
2022-10-15T15:48:31.570Z,0.63
2022-10-15T15:51:25.633Z,0.90
2022-10-15T15:53:52.824Z,0.57
2022-10-15T15:56:20.242Z,0.63
2022-10-15T15:58:50.372Z,1.00
2022-10-15T16:01:18.987Z,1.03
2022-10-15T16:03:46.280Z,0.75
2022-10-15T16:06:14.046Z,0.68
2022-10-15T16:08:45.786Z,0.63
2022-10-15T16:11:13.294Z,0.60
2022-10-15T16:13:41.464Z,1.07
2022-10-15T16:16:11.220Z,0.90
2022-10-15T16:18:38.566Z,1.00
2022-10-15T16:21:06.003Z,1.00
2022-10-15T16:23:35.423Z,0.73
2022-10-15T16:26:02.635Z,0.90
2022-10-15T16:28:29.894Z,1.20
2022-10-15T16:31:20.283Z,1.05
2022-10-15T16:33:48.256Z,1.00
2022-10-15T16:36:18.435Z,1.10
2022-10-15T16:38:46.667Z,0.85
2022-10-15T16:41:15.651Z,0.80
2022-10-15T16:43:47.189Z,0.80
2022-10-15T16:46:15.935Z,1.25
2022-10-15T16:48:46.449Z,0.80
2022-10-15T16:51:17.480Z,0.80
2022-10-15T16:53:46.460Z,1.17
2022-10-15T16:56:14.891Z,1.10
2022-10-15T16:58:42.347Z,0.97
2022-10-15T17:01:13.204Z,0.90
2022-10-15T17:03:44.390Z,1.10
2022-10-15T17:06:15.043Z,0.70
2022-10-15T17:08:43.499Z,0.70
2022-10-15T17:11:24.601Z,0.90
2022-10-15T17:13:56.807Z,0.97
2022-10-15T17:16:39.163Z,0.83
2022-10-15T17:19:07.282Z,0.83
2022-10-15T17:21:35.265Z,0.90
2022-10-15T17:24:05.517Z,1.00
2022-10-15T17:26:39.041Z,1.00
2022-10-15T17:29:20.174Z,1.20
2022-10-15T17:31:48.785Z,1.00
2022-10-15T17:34:16.876Z,1.30
2022-10-15T17:36:48.337Z,1.50
2022-10-15T17:39:18.277Z,1.10
2022-10-15T17:41:45.692Z,1.23
2022-10-15T17:44:14.111Z,1.67
2022-10-15T17:46:42.098Z,1.30
2022-10-15T17:49:11.006Z,1.40
2022-10-15T17:51:40.761Z,1.60
2022-10-15T17:54:08.142Z,1.10
2022-10-15T17:56:38.394Z,1.50
2022-10-15T17:59:07.772Z,1.48
2022-10-15T18:01:57.191Z,1.70
2022-10-15T18:04:25.704Z,1.30
2022-10-15T18:06:52.886Z,1.70
2022-10-15T18:09:20.040Z,1.27
2022-10-15T18:11:49.074Z,1.33
2022-10-15T18:14:17.258Z,1.60
2022-10-15T18:16:45.835Z,1.47
2022-10-15T18:19:13.295Z,1.87
2022-10-15T18:21:41.381Z,1.60
2022-10-15T18:24:09.069Z,1.60
2022-10-15T18:26:36.231Z,1.50
2022-10-15T18:29:03.644Z,1.40
2022-10-15T18:31:31.412Z,1.90
2022-10-15T18:33:58.827Z,1.57
2022-10-15T18:36:31.585Z,1.67
2022-10-15T18:38:59.326Z,1.63
2022-10-15T18:41:35.802Z,1.50
2022-10-15T18:44:06.030Z,1.37
2022-10-15T18:46:34.924Z,1.50
2022-10-15T18:49:02.839Z,1.63
2022-10-15T18:51:30.816Z,2.20
2022-10-15T18:53:59.597Z,1.90
2022-10-15T18:56:27.050Z,2.07
2022-10-15T18:58:57.602Z,1.80
2022-10-15T19:01:30.645Z,1.70
2022-10-15T19:04:02.074Z,2.23
2022-10-15T19:06:32.005Z,2.00
2022-10-15T19:09:00.274Z,2.33
2022-10-15T19:11:28.201Z,2.17
2022-10-15T19:13:59.045Z,2.03
2022-10-15T19:16:28.840Z,1.83
2022-10-15T19:18:58.616Z,2.10
2022-10-15T19:21:26.030Z,2.17
2022-10-15T19:23:53.542Z,2.50
2022-10-15T19:26:20.803Z,2.50
2022-10-15T19:28:48.035Z,2.17
2022-10-15T19:31:25.256Z,2.73
2022-10-15T19:33:55.871Z,2.63
2022-10-15T19:36:25.660Z,3.20
2022-10-15T19:38:53.133Z,3.70
2022-10-15T19:41:20.414Z,3.40
2022-10-15T19:43:47.615Z,2.90
2022-10-15T19:46:15.062Z,3.27
2022-10-15T19:48:42.250Z,2.83
2022-10-15T19:51:12.104Z,2.80
2022-10-15T19:53:39.326Z,2.83
2022-10-15T19:56:12.541Z,3.10
2022-10-15T19:58:40.121Z,3.30
2022-10-15T20:01:09.756Z,3.37
2022-10-15T20:03:37.496Z,3.33
2022-10-15T20:06:08.388Z,3.10
2022-10-15T20:08:36.610Z,3.83
2022-10-15T20:11:07.128Z,3.50
2022-10-15T20:13:35.301Z,2.90
2022-10-15T20:16:04.544Z,3.13
2022-10-15T20:18:34.657Z,3.33
2022-10-15T20:21:09.285Z,3.07
2022-10-15T20:23:41.038Z,3.53
2022-10-15T20:26:13.619Z,3.40
2022-10-15T20:28:42.625Z,4.00
2022-10-15T20:31:20.528Z,3.20
2022-10-15T20:33:47.788Z,3.27
2022-10-15T20:36:22.577Z,3.27
2022-10-15T20:38:50.205Z,3.20
2022-10-15T20:41:18.158Z,3.30
2022-10-15T20:43:47.150Z,3.00
2022-10-15T20:46:22.311Z,2.97
2022-10-15T20:48:50.162Z,2.83
2022-10-15T20:51:18.981Z,3.20
2022-10-15T20:53:46.483Z,2.97
2022-10-15T20:56:14.238Z,3.03
2022-10-15T20:58:41.878Z,3.00
2022-10-15T21:01:10.248Z,2.60
2022-10-15T21:03:37.466Z,2.60
2022-10-15T21:06:04.672Z,2.87
2022-10-15T21:08:31.893Z,2.57
2022-10-15T21:11:07.983Z,3.40
2022-10-15T21:13:35.406Z,2.70
2022-10-15T21:16:09.160Z,2.70
2022-10-15T21:18:37.098Z,2.43
2022-10-15T21:21:09.855Z,2.50
2022-10-15T21:23:38.326Z,2.20
2022-10-15T21:26:16.946Z,2.43
2022-10-15T21:28:45.281Z,2.43
2022-10-15T21:31:17.638Z,2.10
2022-10-15T21:33:46.174Z,2.07
2022-10-15T21:36:22.140Z,1.80
2022-10-15T21:38:53.292Z,2.00
2022-10-15T21:41:21.391Z,1.73
2022-10-15T21:46:20.912Z,1.90
2022-10-15T21:48:48.131Z,1.90
2022-10-15T21:51:17.546Z,1.80
2022-10-15T21:53:45.458Z,2.10
2022-10-15T21:56:15.707Z,1.70
2022-10-15T21:58:43.724Z,2.00
2022-10-15T22:01:19.604Z,1.90
2022-10-15T22:03:48.196Z,1.77
2022-10-15T22:06:16.499Z,1.87
2022-10-15T22:08:43.809Z,2.13
2022-10-15T22:13:56.934Z,1.90
2022-10-15T22:16:25.901Z,1.70
2022-10-15T22:18:54.257Z,2.10
2022-10-15T22:21:29.896Z,1.97
2022-10-15T22:24:02.399Z,2.00
2022-10-15T22:26:35.902Z,1.73
2022-10-15T22:29:05.410Z,2.10
2022-10-15T22:31:33.464Z,2.50
2022-10-15T22:34:00.995Z,2.13
2022-10-15T22:36:31.800Z,1.80
2022-10-15T22:39:02.360Z,1.70
2022-10-15T22:41:31.770Z,2.03
2022-10-15T22:43:59.083Z,1.80
2022-10-15T22:46:27.163Z,1.80
2022-10-15T22:48:54.772Z,1.77
2022-10-15T22:51:22.336Z,1.53
2022-10-15T22:53:49.470Z,1.80
2022-10-15T22:56:18.751Z,1.70
2022-10-15T22:58:46.722Z,1.57
2022-10-15T23:01:22.691Z,1.70
2022-10-15T23:03:53.271Z,1.50
2022-10-15T23:06:22.013Z,1.50
2022-10-15T23:08:49.534Z,1.80
2022-10-15T23:11:32.008Z,1.50
2022-10-15T23:14:04.723Z,1.37
2022-10-15T23:16:37.685Z,1.27
2022-10-15T23:19:08.063Z,1.23
2022-10-15T23:21:46.713Z,1.10
2022-10-15T23:24:14.095Z,1.50
2022-10-15T23:26:42.221Z,1.20
2022-10-15T23:29:14.851Z,0.87
2022-10-15T23:31:42.101Z,0.73
2022-10-15T23:34:14.218Z,1.10
2022-10-15T23:36:41.881Z,1.10
2022-10-15T23:39:12.475Z,1.40
2022-10-15T23:41:39.665Z,1.00
2022-10-15T23:44:06.877Z,1.00
2022-10-15T23:46:36.336Z,1.00
2022-10-15T23:49:04.276Z,1.10
2022-10-15T23:51:37.196Z,0.80
2022-10-15T23:54:12.441Z,0.80
2022-10-15T23:56:42.465Z,0.90
2022-10-15T23:59:10.215Z,0.77
